Time;durP1;ratioP1;P1;durP2;ratioP2;P2;SDS_P1;SDS_P2;PMS_P1;PMS_P2;Temp;Humidity;BMP_temperature;BMP_pressure;BME280_temperature;BME280_humidity;BME280_pressure;Samples;Min_cycle;Max_cycle;Signal;HPM_P1;HPM_P2
2022/12/18 00:02:04;;;;;;;127.65;39.50;;;-2.00;99.90;;;;;;5069034;28;20029;-71
2022/12/18 00:04:30;;;;;;;121.22;39.35;;;-2.00;99.90;;;;;;5078116;28;20063;-71
2022/12/18 00:06:56;;;;;;;128.38;38.60;;;-2.00;99.90;;;;;;5072005;28;20037;-70
2022/12/18 00:09:21;;;;;;;116.45;37.25;;;-1.90;99.90;;;;;;5080326;28;20028;-69
2022/12/18 00:11:47;;;;;;;119.30;38.58;;;-1.90;99.90;;;;;;5089145;28;20016;-71
2022/12/18 00:14:13;;;;;;;118.13;38.17;;;-1.90;99.90;;;;;;5082493;28;20045;-69
2022/12/18 00:16:40;;;;;;;115.38;38.22;;;-1.90;99.90;;;;;;5085691;28;20027;-70
2022/12/18 00:19:07;;;;;;;112.30;37.78;;;-1.90;99.90;;;;;;5075326;28;20028;-69
2022/12/18 00:21:33;;;;;;;115.45;38.20;;;-1.90;99.90;;;;;;5073161;28;20013;-70
2022/12/18 00:24:00;;;;;;;122.18;39.60;;;-1.90;99.90;;;;;;5071963;28;20021;-69
2022/12/18 00:26:31;;;;;;;112.15;38.20;;;-1.90;99.90;;;;;;5072382;28;20021;-70
2022/12/18 00:29:05;;;;;;;116.15;38.17;;;-1.90;99.90;;;;;;5068114;28;20115;-69
2022/12/18 00:31:31;;;;;;;113.40;37.13;;;-1.90;99.90;;;;;;5075366;28;20113;-69
2022/12/18 00:33:57;;;;;;;114.68;36.88;;;-1.90;99.90;;;;;;5070782;28;20099;-69
2022/12/18 00:36:25;;;;;;;106.60;36.80;;;-1.90;99.90;;;;;;5081803;28;20063;-69
2022/12/18 00:38:52;;;;;;;113.07;37.25;;;-1.90;99.90;;;;;;5061809;28;20123;-69
2022/12/18 00:42:55;;;;;;;107.50;36.67;;;-1.90;99.90;;;;;;5065935;28;20036;-69
2022/12/18 00:44:05;;;;;;;112.53;36.72;;;-1.90;99.90;;;;;;5058415;28;20032;-69
2022/12/18 00:46:31;;;;;;;116.93;37.83;;;-1.90;99.90;;;;;;5066485;28;20024;-69
2022/12/18 00:48:57;;;;;;;108.43;36.58;;;-1.90;99.90;;;;;;5081384;28;20528;-69
2022/12/18 00:51:24;;;;;;;115.78;37.95;;;-1.90;99.90;;;;;;5072048;28;20032;-69
2022/12/18 00:53:50;;;;;;;109.70;36.70;;;-1.90;99.90;;;;;;5064979;28;20052;-68
2022/12/18 00:56:15;;;;;;;116.80;38.17;;;-2.00;99.90;;;;;;5064715;28;20021;-69
2022/12/18 00:58:41;;;;;;;121.05;38.85;;;-2.00;99.90;;;;;;5076745;28;20024;-68
2022/12/18 01:01:07;;;;;;;117.18;38.13;;;-2.00;99.90;;;;;;5092877;28;20056;-68
2022/12/18 01:03:33;;;;;;;113.45;36.47;;;-2.10;99.90;;;;;;5075288;28;20136;-69
2022/12/18 01:05:59;;;;;;;112.55;36.88;;;-2.10;99.90;;;;;;5071716;28;20099;-69
2022/12/18 01:08:24;;;;;;;120.60;36.47;;;-2.00;99.90;;;;;;5072125;28;20028;-68
2022/12/18 01:10:50;;;;;;;111.90;37.28;;;-2.10;99.90;;;;;;5069982;28;20028;-68
2022/12/18 01:13:16;;;;;;;119.70;36.13;;;-2.10;99.90;;;;;;5070992;28;20066;-69
2022/12/18 01:15:48;;;;;;;117.70;37.25;;;-2.10;99.90;;;;;;5066302;28;20449;-68
2022/12/18 01:18:14;;;;;;;110.90;36.20;;;-2.10;99.90;;;;;;5072002;28;20496;-69
2022/12/18 01:20:40;;;;;;;119.68;37.85;;;-2.10;99.90;;;;;;5082996;28;20036;-69
2022/12/18 01:23:05;;;;;;;119.53;37.78;;;-2.10;99.90;;;;;;5071021;28;20070;-70
2022/12/18 01:25:33;;;;;;;115.80;37.53;;;-2.10;99.90;;;;;;5060912;28;20052;-69
2022/12/18 01:27:58;;;;;;;118.72;36.83;;;-2.10;99.90;;;;;;5063432;28;20028;-69
2022/12/18 01:30:26;;;;;;;113.82;35.92;;;-2.10;99.90;;;;;;5070684;28;20469;-69
2022/12/18 01:32:52;;;;;;;120.13;36.83;;;-2.10;99.90;;;;;;5091279;28;20115;-69
2022/12/18 01:35:17;;;;;;;119.07;37.15;;;-2.10;99.90;;;;;;5057557;28;20107;-70
2022/12/18 01:37:43;;;;;;;111.93;35.35;;;-2.10;99.90;;;;;;5059021;28;20016;-69
2022/12/18 01:40:09;;;;;;;110.50;35.15;;;-2.20;99.90;;;;;;5071072;28;20052;-71
2022/12/18 01:42:35;;;;;;;119.63;36.13;;;-2.20;99.90;;;;;;5091584;28;20016;-69
2022/12/18 01:45:15;;;;;;;134.25;38.25;;;-2.20;99.90;;;;;;5091244;28;20085;-69
2022/12/18 01:47:48;;;;;;;121.18;36.58;;;-2.20;99.90;;;;;;5065001;28;20479;-69
2022/12/18 01:50:18;;;;;;;114.70;36.63;;;-2.20;99.90;;;;;;5076163;28;20025;-69
2022/12/18 01:52:48;;;;;;;114.88;35.58;;;-2.20;99.90;;;;;;5070105;28;20029;-69
2022/12/18 01:55:18;;;;;;;125.97;37.15;;;-2.20;99.90;;;;;;5052762;28;20062;-70
2022/12/18 01:57:43;;;;;;;112.40;35.88;;;-2.30;99.90;;;;;;5070736;28;20020;-69
2022/12/18 02:00:14;;;;;;;122.95;35.95;;;-2.30;99.90;;;;;;5069986;28;20535;-69
2022/12/18 02:02:44;;;;;;;112.50;34.58;;;-2.30;99.90;;;;;;5070004;28;20020;-69
2022/12/18 02:05:15;;;;;;;114.75;34.90;;;-2.30;99.90;;;;;;5070619;28;20063;-69
2022/12/18 02:07:43;;;;;;;114.03;35.45;;;-2.30;99.90;;;;;;5070055;28;20053;-70
2022/12/18 02:10:16;;;;;;;119.38;35.63;;;-2.30;99.90;;;;;;5070439;28;20017;-70
2022/12/18 02:12:46;;;;;;;111.95;35.97;;;-2.30;99.90;;;;;;5051971;28;20494;-68
2022/12/18 02:15:18;;;;;;;110.43;34.67;;;-2.30;99.90;;;;;;5052688;28;20040;-69
2022/12/18 02:17:57;;;;;;;114.63;34.90;;;-2.30;99.90;;;;;;5055512;28;20029;-69
2022/12/18 02:20:42;;;;;;;115.95;36.65;;;-2.30;99.90;;;;;;5070514;28;20490;-69
2022/12/18 02:23:40;;;;;;;107.78;36.20;;;-2.30;99.90;;;;;;5085709;28;20469;-69
2022/12/18 02:26:05;;;;;;;113.35;36.00;;;-2.30;99.90;;;;;;5067943;28;20074;-69
2022/12/18 02:28:35;;;;;;;110.47;35.03;;;-2.30;99.90;;;;;;5069850;28;20032;-70
2022/12/18 02:31:05;;;;;;;105.03;34.25;;;-2.30;99.90;;;;;;5048381;28;20067;-69
2022/12/18 02:33:33;;;;;;;118.57;36.75;;;-2.30;99.90;;;;;;5057066;28;20029;-69
2022/12/18 02:36:01;;;;;;;117.70;36.38;;;-2.30;99.90;;;;;;5069659;28;20021;-69
2022/12/18 02:38:28;;;;;;;108.53;36.25;;;-2.40;99.90;;;;;;5070405;28;20600;-69
2022/12/18 02:40:55;;;;;;;115.20;35.40;;;-2.30;99.90;;;;;;5068824;28;20063;-70
2022/12/18 02:43:21;;;;;;;110.57;35.65;;;-2.30;99.90;;;;;;5066843;28;20495;-70
2022/12/18 02:45:55;;;;;;;108.38;36.00;;;-2.30;99.90;;;;;;5056723;28;20021;-69
2022/12/18 02:48:30;;;;;;;114.43;36.20;;;-2.30;99.90;;;;;;5069931;28;20075;-69
2022/12/18 02:51:17;;;;;;;116.15;36.85;;;-2.30;99.90;;;;;;5070084;28;20032;-69
2022/12/18 02:53:51;;;;;;;112.55;35.25;;;-2.30;99.90;;;;;;5070172;28;20021;-69
2022/12/18 02:56:26;;;;;;;119.57;36.72;;;-2.30;99.90;;;;;;5066959;28;20707;-69
2022/12/18 02:58:58;;;;;;;105.65;34.13;;;-2.40;99.90;;;;;;5050102;28;20024;-68
2022/12/18 03:01:30;;;;;;;104.32;33.60;;;-2.30;99.90;;;;;;5059438;28;20363;-69
2022/12/18 03:04:13;;;;;;;99.78;34.17;;;-2.40;99.90;;;;;;5051108;28;20421;-71
2022/12/18 03:06:44;;;;;;;110.70;35.03;;;-2.40;99.90;;;;;;5058516;28;20024;-69
2022/12/18 03:09:17;;;;;;;102.45;34.45;;;-2.40;99.90;;;;;;5065213;28;20028;-69
2022/12/18 03:14:36;;;;;;;99.32;33.60;;;-2.40;99.90;;;;;;5070681;28;20424;-69
2022/12/18 03:17:05;;;;;;;98.78;33.20;;;-2.50;99.90;;;;;;5067897;28;20058;-69
2022/12/18 03:19:33;;;;;;;107.15;34.95;;;-2.50;99.90;;;;;;5058486;28;20079;-69
2022/12/18 03:22:02;;;;;;;104.38;33.15;;;-2.40;99.90;;;;;;5067014;28;20056;-69
2022/12/18 03:24:31;;;;;;;98.72;33.97;;;-2.50;99.90;;;;;;5069998;28;20509;-69
2022/12/18 03:27:05;;;;;;;89.07;31.35;;;-2.50;99.90;;;;;;5066085;28;20029;-69
2022/12/18 03:29:48;;;;;;;92.63;32.22;;;-2.50;99.90;;;;;;5069657;28;20389;-69
2022/12/18 03:32:43;;;;;;;90.65;30.73;;;-2.50;99.90;;;;;;5067998;28;20069;-69
2022/12/18 03:35:12;;;;;;;98.10;32.85;;;-2.50;99.90;;;;;;5052906;28;20040;-69
2022/12/18 03:37:38;;;;;;;85.65;31.25;;;-2.50;99.90;;;;;;5067916;28;20036;-69
2022/12/18 03:40:05;;;;;;;95.68;31.17;;;-2.60;99.90;;;;;;5069668;28;20393;-69
2022/12/18 03:42:37;;;;;;;89.28;31.77;;;-2.60;99.90;;;;;;5051526;28;20032;-69
2022/12/18 03:45:27;;;;;;;91.13;31.65;;;-2.60;99.90;;;;;;5055959;28;20028;-69
2022/12/18 03:48:07;;;;;;;93.60;31.80;;;-2.60;99.90;;;;;;5068419;28;20056;-69
2022/12/18 03:50:46;;;;;;;87.63;31.80;;;-2.60;99.90;;;;;;5069770;28;20047;-69
2022/12/18 03:53:12;;;;;;;93.85;31.35;;;-2.60;99.90;;;;;;5065786;28;20104;-69
2022/12/18 03:55:39;;;;;;;84.95;29.67;;;-2.60;99.90;;;;;;5069198;28;20470;-69
2022/12/18 03:58:07;;;;;;;87.95;30.67;;;-2.60;99.90;;;;;;5069484;28;20531;-69
2022/12/18 04:00:34;;;;;;;87.60;30.75;;;-2.70;99.90;;;;;;5063472;28;20120;-69
2022/12/18 04:03:01;;;;;;;90.60;32.25;;;-2.70;99.90;;;;;;5049757;28;20052;-69
2022/12/18 04:05:29;;;;;;;95.03;30.98;;;-2.70;99.90;;;;;;5066099;28;20055;-69
2022/12/18 04:07:56;;;;;;;88.80;29.85;;;-2.70;99.90;;;;;;5068797;28;20078;-69
2022/12/18 04:10:22;;;;;;;92.60;31.83;;;-2.70;99.90;;;;;;5068127;28;20474;-69
2022/12/18 04:12:48;;;;;;;89.75;30.30;;;-2.70;99.90;;;;;;5068857;28;20009;-68
2022/12/18 04:15:14;;;;;;;98.25;31.85;;;-2.70;99.90;;;;;;5068665;28;20077;-69
2022/12/18 04:17:47;;;;;;;87.40;30.02;;;-2.70;99.90;;;;;;5049869;28;20489;-69
2022/12/18 04:20:13;;;;;;;94.78;31.17;;;-2.80;99.90;;;;;;5068557;28;20366;-69
2022/12/18 04:22:38;;;;;;;98.93;31.85;;;-2.70;99.90;;;;;;5068811;28;20017;-69
2022/12/18 04:25:04;;;;;;;91.63;31.05;;;-2.80;99.90;;;;;;5064158;28;20111;-69
2022/12/18 04:27:30;;;;;;;102.10;33.42;;;-2.70;99.90;;;;;;5072142;28;20063;-69
2022/12/18 04:29:55;;;;;;;93.00;30.75;;;-2.80;99.90;;;;;;5063558;28;20028;-69
2022/12/18 04:32:21;;;;;;;96.72;32.42;;;-2.70;99.90;;;;;;5051087;28;20037;-69
2022/12/18 04:34:47;;;;;;;97.18;30.58;;;-2.70;99.90;;;;;;5066008;28;20096;-69
2022/12/18 04:37:12;;;;;;;96.28;31.10;;;-2.80;99.90;;;;;;5072949;28;20017;-69
2022/12/18 04:39:38;;;;;;;105.10;33.13;;;-2.80;99.90;;;;;;5066411;28;20272;-68
2022/12/18 04:42:04;;;;;;;99.50;32.28;;;-2.80;99.90;;;;;;5064976;28;20419;-69
2022/12/18 04:44:30;;;;;;;90.68;30.52;;;-2.80;99.90;;;;;;5071557;28;20123;-69
2022/12/18 04:46:55;;;;;;;88.57;29.90;;;-2.80;99.90;;;;;;5061828;28;20039;-69
2022/12/18 04:49:21;;;;;;;92.82;31.35;;;-2.80;99.90;;;;;;5067901;28;20028;-69
2022/12/18 04:51:47;;;;;;;86.85;29.13;;;-2.80;99.90;;;;;;5053328;28;20017;-69
2022/12/18 04:54:12;;;;;;;94.68;30.70;;;-2.90;99.90;;;;;;5057675;28;20049;-69
2022/12/18 04:56:38;;;;;;;87.63;29.42;;;-2.90;99.90;;;;;;5057921;28;20017;-69
2022/12/18 04:59:04;;;;;;;84.53;30.13;;;-2.90;99.90;;;;;;5070950;28;20115;-69
2022/12/18 05:01:30;;;;;;;87.80;29.92;;;-2.90;99.90;;;;;;5071463;28;20029;-69
2022/12/18 05:03:55;;;;;;;84.13;29.17;;;-3.00;99.90;;;;;;5071834;28;20040;-69
2022/12/18 05:06:21;;;;;;;88.85;30.88;;;-3.00;99.90;;;;;;5057613;28;20085;-69
2022/12/18 05:08:47;;;;;;;85.32;29.20;;;-3.00;99.90;;;;;;5071931;28;20021;-70
2022/12/18 05:11:15;;;;;;;83.72;28.77;;;-3.10;99.90;;;;;;5074783;28;20024;-69
2022/12/18 05:13:41;;;;;;;82.38;30.83;;;-3.10;99.90;;;;;;5076044;28;20079;-69
2022/12/18 05:16:07;;;;;;;78.53;29.08;;;-3.10;99.90;;;;;;5057484;28;20061;-69
2022/12/18 05:18:33;;;;;;;82.00;29.02;;;-3.20;99.90;;;;;;5071264;28;20017;-69
2022/12/18 05:20:59;;;;;;;79.68;29.05;;;-3.20;99.90;;;;;;5071456;28;20078;-69
2022/12/18 05:23:25;;;;;;;74.07;27.65;;;-3.20;99.90;;;;;;5070118;28;20016;-69
2022/12/18 05:25:52;;;;;;;75.10;27.48;;;-3.20;99.90;;;;;;5071274;28;20020;-69
2022/12/18 05:28:18;;;;;;;75.85;28.50;;;-3.20;99.90;;;;;;5070258;28;20069;-70
2022/12/18 05:30:51;;;;;;;81.50;29.42;;;-3.30;99.90;;;;;;5071130;28;20325;-69
2022/12/18 05:33:18;;;;;;;76.30;28.88;;;-3.30;99.90;;;;;;5071078;28;20398;-70
2022/12/18 05:35:44;;;;;;;77.70;28.10;;;-3.30;99.90;;;;;;5058435;28;20058;-69
2022/12/18 05:38:10;;;;;;;80.60;29.05;;;-3.30;99.90;;;;;;5069898;28;20024;-69
2022/12/18 05:40:36;;;;;;;70.47;27.88;;;-3.30;99.90;;;;;;5071214;28;20066;-69
2022/12/18 05:43:02;;;;;;;71.82;27.98;;;-3.40;99.90;;;;;;5057611;28;20029;-69
2022/12/18 05:45:27;;;;;;;77.10;28.23;;;-3.40;99.90;;;;;;5069466;28;20027;-70
2022/12/18 05:47:53;;;;;;;74.72;28.83;;;-3.40;99.90;;;;;;5069916;28;20033;-70
2022/12/18 05:50:19;;;;;;;78.80;29.20;;;-3.40;99.90;;;;;;5070586;28;20035;-70
2022/12/18 05:52:45;;;;;;;74.80;26.88;;;-3.50;99.90;;;;;;5070466;28;20526;-69
2022/12/18 05:55:11;;;;;;;81.05;28.85;;;-3.50;99.90;;;;;;5070239;28;20352;-70
2022/12/18 05:57:37;;;;;;;74.45;27.67;;;-3.50;99.90;;;;;;5058708;28;20394;-69
2022/12/18 06:00:03;;;;;;;71.25;28.23;;;-3.50;99.90;;;;;;5069448;28;20040;-69
2022/12/18 06:02:29;;;;;;;77.47;28.17;;;-3.50;99.90;;;;;;5070380;28;20105;-69
2022/12/18 06:04:55;;;;;;;77.40;29.83;;;-3.60;99.90;;;;;;5070741;28;20087;-69
2022/12/18 06:07:20;;;;;;;80.32;28.90;;;-3.60;99.90;;;;;;5062880;28;20124;-69
2022/12/18 06:09:46;;;;;;;69.65;27.27;;;-3.60;99.90;;;;;;5068735;28;20016;-69
2022/12/18 06:12:11;;;;;;;77.18;27.65;;;-3.60;99.90;;;;;;5064846;28;20130;-70
2022/12/18 06:14:37;;;;;;;75.90;28.45;;;-3.70;99.90;;;;;;5056177;28;20025;-69
2022/12/18 06:17:02;;;;;;;82.70;29.13;;;-3.70;99.90;;;;;;5056180;28;20021;-69
2022/12/18 06:19:28;;;;;;;73.65;27.85;;;-3.70;99.90;;;;;;5063859;28;20438;-69
2022/12/18 06:21:54;;;;;;;80.88;29.17;;;-3.70;99.90;;;;;;5060221;28;20104;-69
2022/12/18 06:24:19;;;;;;;75.72;28.90;;;-3.70;99.90;;;;;;5070628;28;20025;-69
2022/12/18 06:26:45;;;;;;;74.80;27.90;;;-3.70;99.90;;;;;;5066009;28;20020;-69
2022/12/18 06:29:11;;;;;;;71.32;28.05;;;-3.70;99.90;;;;;;5051764;28;20025;-69
2022/12/18 06:31:37;;;;;;;74.72;28.25;;;-3.70;99.90;;;;;;5065166;28;20023;-69
2022/12/18 06:34:04;;;;;;;77.85;28.02;;;-3.70;99.90;;;;;;5045623;28;20099;-69
2022/12/18 06:36:29;;;;;;;73.95;28.52;;;-3.70;99.90;;;;;;5069411;28;20039;-69
2022/12/18 06:38:56;;;;;;;75.45;28.08;;;-3.80;99.90;;;;;;5068256;28;20021;-69
2022/12/18 06:41:22;;;;;;;71.80;28.20;;;-3.80;99.90;;;;;;5063654;28;20042;-69
2022/12/18 06:43:48;;;;;;;66.13;25.63;;;-3.70;99.90;;;;;;5052020;28;20070;-69
2022/12/18 06:46:14;;;;;;;73.18;25.85;;;-3.70;99.90;;;;;;5069533;28;20017;-70
2022/12/18 06:48:40;;;;;;;73.00;26.42;;;-3.70;99.90;;;;;;5063848;28;20349;-69
2022/12/18 06:51:06;;;;;;;61.85;24.45;;;-3.70;99.90;;;;;;5067750;28;20020;-69
2022/12/18 06:53:32;;;;;;;63.10;25.98;;;-3.70;99.90;;;;;;5065810;28;20025;-69
2022/12/18 06:56:03;;;;;;;62.55;25.70;;;-3.80;99.90;;;;;;5067007;28;20486;-69
2022/12/18 06:58:29;;;;;;;61.53;24.17;;;-3.80;99.90;;;;;;5068715;28;20108;-70
2022/12/18 07:01:01;;;;;;;65.35;24.40;;;-3.80;99.90;;;;;;5070390;28;20111;-69
2022/12/18 07:03:27;;;;;;;65.10;24.92;;;-3.80;99.90;;;;;;5069419;28;20477;-69
2022/12/18 07:05:53;;;;;;;62.83;25.80;;;-3.80;99.90;;;;;;5055436;28;20048;-69
2022/12/18 07:08:18;;;;;;;59.97;25.73;;;-3.80;99.90;;;;;;5068372;28;20021;-70
2022/12/18 07:10:44;;;;;;;60.28;24.48;;;-3.80;99.90;;;;;;5070531;28;20056;-69
2022/12/18 07:13:10;;;;;;;55.88;22.92;;;-3.80;99.90;;;;;;5065209;28;20514;-69
2022/12/18 07:15:36;;;;;;;58.05;23.52;;;-3.80;99.90;;;;;;5067891;28;20616;-69
2022/12/18 07:18:01;;;;;;;60.72;23.67;;;-3.80;99.90;;;;;;5055502;28;20101;-69
2022/12/18 07:20:27;;;;;;;58.88;23.08;;;-3.80;99.90;;;;;;5054046;28;20021;-69
2022/12/18 07:22:52;;;;;;;57.53;23.02;;;-3.80;99.90;;;;;;5050362;28;20030;-69
2022/12/18 07:25:18;;;;;;;61.47;23.50;;;-3.80;99.90;;;;;;5069569;28;20025;-69
2022/12/18 07:27:44;;;;;;;53.28;21.73;;;-3.80;99.90;;;;;;5069552;28;20021;-69
2022/12/18 07:30:10;;;;;;;59.33;23.15;;;-3.90;99.90;;;;;;5067913;28;20531;-70
2022/12/18 07:32:35;;;;;;;57.42;22.25;;;-3.90;99.90;;;;;;5069135;28;20021;-70
2022/12/18 07:35:01;;;;;;;51.05;21.98;;;-3.90;99.90;;;;;;5066781;28;20025;-69
2022/12/18 07:37:27;;;;;;;49.22;21.08;;;-3.80;99.90;;;;;;5050308;28;20513;-69
2022/12/18 07:39:52;;;;;;;56.45;21.60;;;-3.80;99.90;;;;;;5062487;28;20033;-69
2022/12/18 07:42:30;;;;;;;50.95;22.27;;;-3.80;99.90;;;;;;5060163;28;20029;-69
2022/12/18 07:44:56;;;;;;;51.85;21.35;;;-3.80;99.90;;;;;;5057989;28;20017;-69
2022/12/18 07:47:21;;;;;;;46.30;20.75;;;-3.80;99.90;;;;;;5039070;28;20222;-69
2022/12/18 07:49:47;;;;;;;50.22;21.83;;;-3.80;99.90;;;;;;5066092;28;20024;-69
2022/12/18 07:52:13;;;;;;;52.10;21.40;;;-3.80;99.90;;;;;;5063237;28;20021;-69
2022/12/18 07:54:40;;;;;;;49.83;21.08;;;-3.80;99.90;;;;;;5059288;28;20553;-70
2022/12/18 07:57:06;;;;;;;51.40;21.23;;;-3.80;99.90;;;;;;5055785;28;20517;-71
2022/12/18 07:59:31;;;;;;;47.53;21.88;;;-3.80;99.90;;;;;;5064829;28;20021;-69
2022/12/18 08:01:58;;;;;;;46.72;20.92;;;-3.80;99.90;;;;;;5065235;28;20540;-69
2022/12/18 08:04:24;;;;;;;49.50;21.70;;;-3.80;99.90;;;;;;5061671;28;20036;-69
2022/12/18 08:06:50;;;;;;;46.95;19.60;;;-3.80;99.90;;;;;;5063035;28;20371;-69
2022/12/18 08:09:15;;;;;;;47.60;21.00;;;-3.80;99.90;;;;;;5061198;28;20489;-69
2022/12/18 08:11:41;;;;;;;49.22;20.88;;;-3.80;99.90;;;;;;5066918;28;20523;-69
2022/12/18 08:14:07;;;;;;;44.97;20.27;;;-3.70;99.90;;;;;;5062122;28;20112;-70
2022/12/18 08:16:33;;;;;;;46.75;20.00;;;-3.70;99.90;;;;;;5059917;28;20508;-69
2022/12/18 08:18:58;;;;;;;49.95;21.27;;;-3.70;99.90;;;;;;5056711;28;20027;-70
2022/12/18 08:21:27;;;;;;;46.88;20.83;;;-3.70;99.90;;;;;;5064664;28;20816;-70
2022/12/18 08:23:54;;;;;;;52.45;20.92;;;-3.70;99.90;;;;;;5056746;28;20033;-69
2022/12/18 08:26:21;;;;;;;45.97;20.08;;;-3.70;99.90;;;;;;5061814;28;20544;-69
2022/12/18 08:28:46;;;;;;;48.13;20.17;;;-3.70;99.90;;;;;;5072966;28;20101;-70
2022/12/18 08:31:12;;;;;;;46.60;19.48;;;-3.70;99.90;;;;;;5073901;28;20481;-69
2022/12/18 08:33:39;;;;;;;46.47;20.30;;;-3.70;99.90;;;;;;5070499;28;20020;-70
2022/12/18 08:36:05;;;;;;;46.03;20.70;;;-3.70;99.90;;;;;;5072665;28;20466;-69
2022/12/18 08:38:32;;;;;;;47.33;20.17;;;-3.70;99.90;;;;;;5072732;28;20481;-69
2022/12/18 08:41:00;;;;;;;46.55;20.15;;;-3.70;99.90;;;;;;5067388;28;20032;-72
2022/12/18 08:46:09;;;;;;;39.67;19.20;;;-3.70;99.90;;;;;;5070389;28;20024;-70
2022/12/18 08:48:35;;;;;;;45.03;19.80;;;-3.60;99.90;;;;;;5066413;28;20448;-70
2022/12/18 08:51:01;;;;;;;44.00;20.02;;;-3.60;99.90;;;;;;5072236;28;20413;-70
2022/12/18 08:53:27;;;;;;;45.78;19.95;;;-3.60;99.90;;;;;;5072258;28;20035;-71
2022/12/18 08:55:53;;;;;;;45.40;20.42;;;-3.50;99.90;;;;;;5066822;28;20036;-70
2022/12/18 08:58:19;;;;;;;44.85;19.63;;;-3.50;99.90;;;;;;5067421;28;20107;-71
2022/12/18 09:00:45;;;;;;;47.22;20.52;;;-3.50;99.90;;;;;;5072060;28;20028;-70
2022/12/18 09:03:15;;;;;;;46.30;20.20;;;-3.40;99.90;;;;;;5071848;28;20074;-71
2022/12/18 09:05:41;;;;;;;45.92;20.50;;;-3.40;99.90;;;;;;5069311;28;20032;-70
2022/12/18 09:08:07;;;;;;;43.05;20.42;;;-3.40;99.90;;;;;;5071886;28;20024;-71
2022/12/18 09:10:33;;;;;;;45.10;20.05;;;-3.30;99.90;;;;;;5071936;28;20063;-71
2022/12/18 09:12:58;;;;;;;43.75;19.63;;;-3.30;99.90;;;;;;5066377;28;20473;-71
2022/12/18 09:15:25;;;;;;;44.75;20.17;;;-3.30;99.90;;;;;;5081810;28;20023;-71
2022/12/18 09:17:52;;;;;;;43.85;19.20;;;-3.30;99.90;;;;;;5095332;28;20087;-71
2022/12/18 09:20:18;;;;;;;43.25;20.13;;;-3.20;99.90;;;;;;5097268;28;20017;-72
2022/12/18 09:22:44;;;;;;;43.28;20.15;;;-3.20;99.90;;;;;;5087588;28;20037;-71
2022/12/18 09:25:10;;;;;;;45.65;20.35;;;-3.10;99.90;;;;;;5090717;28;20059;-72
2022/12/18 09:27:36;;;;;;;45.45;20.00;;;-3.10;99.90;;;;;;5091922;28;20009;-71
2022/12/18 09:30:02;;;;;;;38.65;19.13;;;-3.10;99.90;;;;;;5087545;28;20064;-72
2022/12/18 09:32:28;;;;;;;41.80;19.17;;;-3.10;99.90;;;;;;5084229;28;20402;-72
2022/12/18 09:34:53;;;;;;;38.22;18.98;;;-3.10;99.90;;;;;;5095961;28;20036;-71
2022/12/18 09:37:19;;;;;;;42.40;19.67;;;-3.10;99.90;;;;;;5102265;28;20025;-71
2022/12/18 09:39:44;;;;;;;45.72;18.95;;;-3.10;99.90;;;;;;5078998;28;20051;-71
2022/12/18 09:42:21;;;;;;;44.97;19.90;;;-3.00;99.90;;;;;;5093726;28;20039;-72
2022/12/18 09:44:53;;;;;;;41.15;19.65;;;-3.00;99.90;;;;;;5094493;28;20025;-71
2022/12/18 09:47:30;;;;;;;43.33;19.85;;;-2.90;99.90;;;;;;5087390;28;20024;-72
2022/12/18 09:50:06;;;;;;;41.25;19.42;;;-2.90;99.90;;;;;;5098655;28;20080;-71
2022/12/18 09:52:43;;;;;;;41.85;19.58;;;-2.90;99.90;;;;;;5091613;28;20027;-72
2022/12/18 09:55:15;;;;;;;42.42;19.52;;;-2.80;99.90;;;;;;5094275;28;20039;-71
2022/12/18 09:57:47;;;;;;;44.03;20.02;;;-2.80;99.90;;;;;;5095756;28;20029;-72
2022/12/18 10:00:19;;;;;;;43.50;19.77;;;-2.80;99.90;;;;;;5083638;28;20048;-73
2022/12/18 10:02:45;;;;;;;42.80;19.52;;;-2.80;99.90;;;;;;5077456;28;20063;-72
2022/12/18 10:05:20;;;;;;;41.65;20.05;;;-2.70;99.90;;;;;;5078214;28;20485;-71
2022/12/18 10:08:01;;;;;;;40.17;20.15;;;-2.70;99.90;;;;;;5080845;28;20021;-70
2022/12/18 10:10:35;;;;;;;42.67;19.75;;;-2.60;99.90;;;;;;5085241;28;20032;-71
2022/12/18 10:13:11;;;;;;;38.20;19.30;;;-2.60;99.90;;;;;;5082598;28;20054;-71
2022/12/18 10:15:51;;;;;;;41.33;19.65;;;-2.60;99.90;;;;;;5086606;28;20039;-72
2022/12/18 10:18:42;;;;;;;40.60;19.42;;;-2.60;99.90;;;;;;5087021;28;20032;-71
2022/12/18 10:21:16;;;;;;;43.28;19.38;;;-2.50;99.90;;;;;;5078815;28;20037;-72
2022/12/18 10:23:42;;;;;;;40.17;18.83;;;-2.50;99.90;;;;;;5087652;28;20071;-70
2022/12/18 10:26:11;;;;;;;41.50;19.48;;;-2.50;99.90;;;;;;5087944;28;20044;-70
2022/12/18 10:28:40;;;;;;;42.22;19.52;;;-2.40;99.90;;;;;;5073313;28;20013;-71
2022/12/18 10:31:07;;;;;;;41.20;19.63;;;-2.40;99.90;;;;;;5092959;28;20038;-72
2022/12/18 10:33:34;;;;;;;40.63;19.70;;;-2.40;99.90;;;;;;5092852;28;20021;-71
2022/12/18 10:36:00;;;;;;;39.85;18.92;;;-2.30;99.90;;;;;;5094011;28;20009;-73
2022/12/18 10:38:31;;;;;;;39.80;19.38;;;-2.30;99.90;;;;;;5087228;28;20080;-71
2022/12/18 10:41:02;;;;;;;39.63;19.02;;;-2.30;99.90;;;;;;5092632;28;20036;-72
2022/12/18 10:43:35;;;;;;;38.47;18.70;;;-2.30;99.90;;;;;;5083577;28;20035;-72
2022/12/18 10:46:05;;;;;;;43.42;19.90;;;-2.20;99.90;;;;;;5100098;28;20016;-73
2022/12/18 10:48:33;;;;;;;38.53;19.02;;;-2.20;99.90;;;;;;5082349;28;20017;-71
2022/12/18 10:51:00;;;;;;;39.20;19.67;;;-2.20;99.90;;;;;;5086963;28;20633;-73
2022/12/18 10:53:28;;;;;;;40.63;19.35;;;-2.10;99.90;;;;;;5084829;28;20020;-69
2022/12/18 10:55:57;;;;;;;39.65;19.90;;;-2.10;99.90;;;;;;5094933;28;20016;-70
2022/12/18 10:58:27;;;;;;;40.03;19.23;;;-2.10;99.90;;;;;;5094582;28;20028;-70
2022/12/18 11:01:09;;;;;;;39.70;19.27;;;-2.00;99.90;;;;;;5088601;28;20032;-71
2022/12/18 11:03:41;;;;;;;41.80;20.17;;;-2.00;99.90;;;;;;5086697;28;20029;-70
2022/12/18 11:06:14;;;;;;;37.30;17.92;;;-2.00;99.90;;;;;;5091552;28;20036;-71
2022/12/18 11:08:56;;;;;;;39.53;19.20;;;-1.90;99.90;;;;;;5089809;28;20017;-71
2022/12/18 11:11:23;;;;;;;43.08;20.00;;;-1.90;99.90;;;;;;5075386;28;20047;-70
2022/12/18 11:14:00;;;;;;;38.83;19.20;;;-1.90;99.90;;;;;;5089853;28;20028;-71
2022/12/18 11:16:27;;;;;;;40.58;19.23;;;-1.90;99.90;;;;;;5087824;28;20027;-71
2022/12/18 11:18:53;;;;;;;38.60;19.05;;;-1.80;99.90;;;;;;5082139;28;20017;-71
2022/12/18 11:21:19;;;;;;;43.47;19.92;;;-1.80;99.90;;;;;;5079739;28;20021;-71
2022/12/18 11:23:49;;;;;;;37.80;18.65;;;-1.70;99.90;;;;;;5084829;28;20028;-71
2022/12/18 11:26:15;;;;;;;38.85;19.50;;;-1.70;99.90;;;;;;5090162;28;20020;-71
2022/12/18 11:28:51;;;;;;;36.30;18.35;;;-1.70;99.90;;;;;;5066765;28;20055;-70
2022/12/18 11:31:28;;;;;;;37.47;18.65;;;-1.70;99.90;;;;;;5087870;28;20035;-72
2022/12/18 11:34:02;;;;;;;40.67;20.33;;;-1.60;99.90;;;;;;5076490;28;20401;-70
2022/12/18 11:36:34;;;;;;;38.28;19.60;;;-1.60;99.90;;;;;;5079690;28;20021;-70
2022/12/18 11:39:13;;;;;;;39.17;19.85;;;-1.50;99.90;;;;;;5064977;28;20033;-70
2022/12/18 11:44:58;;;;;;;38.28;18.77;;;-1.50;99.90;;;;;;5082357;28;20093;-71
2022/12/18 11:48:08;;;;;;;37.28;19.15;;;-1.50;99.90;;;;;;5073556;28;20032;-70
2022/12/18 11:50:37;;;;;;;36.80;18.60;;;-1.40;99.90;;;;;;5051418;28;20032;-70
2022/12/18 11:53:02;;;;;;;39.03;19.58;;;-1.40;99.90;;;;;;5077525;28;20020;-70
2022/12/18 11:55:31;;;;;;;37.40;18.10;;;-1.40;99.90;;;;;;5081124;28;20027;-70
2022/12/18 11:58:24;;;;;;;36.70;18.33;;;-1.40;99.90;;;;;;5071175;28;20048;-70
2022/12/18 12:01:17;;;;;;;39.78;19.25;;;-1.40;99.90;;;;;;5082070;28;20028;-70
2022/12/18 12:04:01;;;;;;;37.80;19.42;;;-1.40;99.90;;;;;;5082079;28;20040;-70
2022/12/18 12:06:59;;;;;;;38.05;19.52;;;-1.30;99.90;;;;;;5074539;28;20106;-70
2022/12/18 12:09:39;;;;;;;39.95;19.58;;;-1.30;99.90;;;;;;5078426;28;20080;-70
2022/12/18 12:12:46;;;;;;;33.95;18.15;;;-1.30;99.90;;;;;;5075283;28;20037;-70
2022/12/18 12:15:31;;;;;;;37.65;18.63;;;-1.30;99.90;;;;;;5078699;28;20033;-70
2022/12/18 12:18:33;;;;;;;37.67;20.10;;;-1.30;99.90;;;;;;5068395;28;20470;-70
2022/12/18 12:21:16;;;;;;;39.55;18.40;;;-1.20;99.90;;;;;;5068483;28;20035;-70
2022/12/18 12:23:49;;;;;;;37.55;19.27;;;-1.20;99.90;;;;;;5082628;28;20024;-70
2022/12/18 12:26:40;;;;;;;38.40;19.17;;;-1.20;99.90;;;;;;5083717;28;20505;-71
2022/12/18 12:29:30;;;;;;;36.88;18.58;;;-1.10;99.90;;;;;;5072101;28;20025;-70
2022/12/18 12:32:19;;;;;;;38.17;19.08;;;-1.10;99.90;;;;;;5080341;28;20024;-70
2022/12/18 12:35:00;;;;;;;37.35;18.55;;;-1.10;99.90;;;;;;5083043;28;20055;-70
2022/12/18 12:37:34;;;;;;;38.60;18.52;;;-1.10;99.90;;;;;;5077729;28;20056;-70
2022/12/18 12:40:01;;;;;;;37.50;18.58;;;-1.10;99.90;;;;;;5073953;28;20036;-70
2022/12/18 12:45:34;;;;;;;37.45;17.70;;;-1.00;99.90;;;;;;5074641;28;20090;-70
2022/12/18 12:48:05;;;;;;;36.50;19.10;;;-1.00;99.90;;;;;;5077973;28;20083;-69